José Martí International Airport
MUHA : rendu visible

Aérodrome :











RETROUVEZ-NOUS SUR...

 
LOGIN :

S'inscrire | Disclaimer

   EN    FR    IT 

 









Légende :    VFR   VFR Marginal   IFR   IFR Intensif   IFR Très Intensif
Visi : 
Plafond : 
>= 8 km
>= 3000ft
5 à 8 km
1000 à 3000 ft
1500m à 5 km
500 à 1000 ft
800 à 1500m
200 à 500 ft
< 800m
< 200 ft
Symboles :   Orages  Brouillard  Fortes neiges  Fortes précipitations  Vent > 20 kt






- Altitude de l'aérodrome : 210 ft
- Code IATA : HAV


MUHA - José Martí International

DERNIER METAR :
  • 210255Z 36012KT 310V030 9000 BKN040 21/13 Q1020

METARs EXPIRÉS :
  • 210155Z 36013KT 8000 OVC040 21/14 Q1020
  • 210055Z 36013KT 8000 OVC019 22/16 Q1020

TAF MUHA
Valide du 21 à 00h jusqu'au 22 à 00h UTC


202300Z 2100/2124 01012KT 9000 BKN020
BECMG 2108/2110 BKN040
BECMG 2113/2115 FEW030



MET'MAP, la Météo Aéronautique d'un coup d'oeil ! - Copyright ORBIFLY Décembre 2007 - Disclaimer

ORBIFLY MET'MAP TEAM :

Programmation & Développement : Alexandra Zaïnal
Sur une idée originale de : Baudouin d'Aumeries
Assistance à la programmation : Marc-Olivier Méhu
Soutien technique & logistique : Manuel Goepfert

Contact : metmap@orbifly.com




SOURCES & CREDITS :

   NOAA       Earth
Advisory